KESWICK RESERVOIR (KES)

Elevation: 596' · SACRAMENTO R basin · Operator: US Bureau of Reclamation

Provisional data, subject to change.
Query executed Friday at 6:21:55   clock

Select a sensor type for a plot of data.
Note: Reservoir Flows are daily averages.

Earlier

Date RES ELE    STORAGE    RES CHG    OUTFLOW    INFLOW   
 FEET   AF   AF   CFS   CFS  
06/02/2016 585.19 22626 181 7528 7625
06/03/2016 584.94 22470 -156 7576 7503
06/04/2016 583.94 21854 -616 7614 7309
06/05/2016 584.17 21995 141 7644 7720
06/06/2016 583.45 21556 -439 7644 7427
06/07/2016 583.47 21568 12 7627 7640
06/08/2016 584.03 21909 341 7621 7798
06/09/2016 584.08 21939 30 7618 7639
06/10/2016 583.56 21623 -316 7618 7465
06/11/2016 584.11 21958 335 7618 7794
06/12/2016 583.91 21835 -123 7617 7562
06/13/2016 582.61 21050 -785 7628 7238
06/14/2016 582.80 21164 114 7669 7735
06/15/2016 582.59 21038 -126 7644 7584
06/16/2016 583.11 21350 312 7642 7801
06/17/2016 583.31 21471 121 7641 7705
06/18/2016 583.82 21781 310 8395 8552
06/19/2016 584.56 22236 455 8779 9014
06/20/2016 584.41 22143 -93 8775 8733
06/21/2016 584.35 22106 -37 8777 8766
06/22/2016 583.88 21817 -289 8790 8650
06/23/2016 583.00 21283 -534 8793 8530
06/24/2016 584.08 21939 656 8787 9124
06/25/2016 585.10 22570 631 8789 9114
06/26/2016 584.89 22439 -131 8788 8728
06/27/2016 584.72 22334 -105 8692 8646
06/28/2016 584.69 22316 -18 8692 8694
06/29/2016 583.58 21635 -681 8689 8352
06/30/2016 583.50 21587 -48 8691 8674
07/01/2016 -- -- -- -- --

Later | Latest

Warning! This data is preliminary and subject to revision.

Show KES Map | Plot KES Data | 1 Month KES Data | Real-Time KES Data | KES Info